Time;durP1;ratioP1;P1;durP2;ratioP2;P2;SDS_P1;SDS_P2;PMS_P1;PMS_P2;Temp;Humidity;BMP_temperature;BMP_pressure;BME280_temperature;BME280_humidity;BME280_pressure;Samples;Min_cycle;Max_cycle;Signal;HPM_P1;HPM_P2
2022/04/14 00:02:04;;;;;;;18.42;11.73;;;;;;;5.95;53.86;101397.38;4949760;28;20078;-82
2022/04/14 00:04:29;;;;;;;25.92;12.65;;;;;;;5.96;54.05;101404.41;4895828;29;20032;-81
2022/04/14 00:06:55;;;;;;;23.43;12.20;;;;;;;5.94;54.03;101401.00;4916597;29;20035;-80
2022/04/14 00:09:23;;;;;;;25.40;12.93;;;;;;;5.92;54.26;101400.22;4920120;29;20532;-82
2022/04/14 00:11:49;;;;;;;22.52;12.02;;;;;;;5.95;54.04;101402.72;4931733;29;20066;-82
2022/04/14 00:14:23;;;;;;;22.52;12.70;;;;;;;5.84;54.42;101397.28;4942157;29;20476;-82
2022/04/14 00:16:49;;;;;;;24.35;12.10;;;;;;;5.92;54.40;101392.22;4940744;29;20047;-83
2022/04/14 00:19:15;;;;;;;;;;;;;;;5.89;54.36;101403.97;4921579;29;20070;-82
2022/04/14 00:21:43;;;;;;;;;;;;;;;5.81;54.64;101398.34;4941163;29;20396;-80
2022/04/14 00:24:08;;;;;;;19.27;10.48;;;;;;;5.83;54.50;101398.22;4917881;29;20303;-82
2022/04/14 00:26:34;;;;;;;19.63;11.70;;;;;;;5.86;54.38;101404.22;4921537;29;20048;-82
2022/04/14 00:28:59;;;;;;;22.37;12.13;;;;;;;5.80;54.65;101398.47;4927658;29;20322;-82
2022/04/14 00:31:27;;;;;;;27.07;12.83;;;;;;;5.73;54.68;101406.06;4918900;29;20043;-82
2022/04/14 00:33:53;;;;;;;23.55;12.48;;;;;;;5.80;54.53;101398.47;4909146;29;20046;-82
2022/04/14 00:36:21;;;;;;;22.60;12.60;;;;;;;5.74;54.60;101391.78;4893075;29;20036;-82
2022/04/14 00:38:47;;;;;;;23.52;12.50;;;;;;;5.78;54.63;101403.06;4935156;29;20501;-80
2022/04/14 00:41:13;;;;;;;21.20;13.15;;;;;;;5.71;54.72;101398.19;4908689;29;20171;-81
2022/04/14 00:43:39;;;;;;;20.85;12.93;;;;;;;5.74;54.67;101398.94;4949986;29;20031;-82
2022/04/14 00:46:05;;;;;;;20.73;12.68;;;;;;;5.80;54.51;101409.97;4916333;29;20489;-81
2022/04/14 00:48:30;;;;;;;;;;;;;;;5.82;54.71;101407.22;4938402;29;20051;-82
2022/04/14 00:50:56;;;;;;;;;;;;;;;5.66;55.06;101413.66;4920548;29;19918;-82
2022/04/14 00:53:22;;;;;;;17.73;11.27;;;;;;;5.60;55.20;101413.25;4929356;29;19961;-82
2022/04/14 00:55:49;;;;;;;20.95;12.13;;;;;;;5.55;55.56;101402.91;4931358;29;20046;-83
2022/04/14 00:58:15;;;;;;;22.35;11.98;;;;;;;5.50;55.50;101407.72;4922714;29;20043;-82
2022/04/14 01:00:41;;;;;;;23.67;12.90;;;;;;;5.59;55.34;101417.72;4925846;29;20039;-82
2022/04/14 01:03:07;;;;;;;25.50;13.57;;;;;;;5.56;55.07;101412.63;4938481;29;20051;-82
2022/04/14 01:05:33;;;;;;;24.60;13.75;;;;;;;5.44;55.28;101397.50;4901195;29;20578;-82
2022/04/14 01:07:59;;;;;;;20.90;12.32;;;;;;;5.57;54.86;101395.66;4926816;29;20496;-82
2022/04/14 01:10:25;;;;;;;18.90;12.00;;;;;;;5.73;54.74;101424.72;4934961;29;20058;-82
2022/04/14 01:12:52;;;;;;;19.63;12.38;;;;;;;5.59;54.76;101396.38;4918125;29;20299;-83
2022/04/14 01:15:17;;;;;;;20.70;12.00;;;;;;;5.80;54.78;101419.81;4936815;29;20035;-84
2022/04/14 01:17:43;;;;;;;20.60;11.93;;;;;;;5.76;54.75;101416.53;4951035;29;20415;-81
2022/04/14 01:20:11;;;;;;;22.93;12.50;;;;;;;5.79;54.72;101421.63;4901662;29;20138;-82
2022/04/14 01:22:57;;;;;;;21.83;12.63;;;;;;;5.67;55.61;101415.38;4912029;29;20112;-82
2022/04/14 01:25:26;;;;;;;19.73;12.45;;;;;;;5.60;55.72;101419.44;4918125;29;20038;-86
2022/04/14 01:27:56;;;;;;;20.00;12.65;;;;;;;5.53;56.33;101418.19;4900162;29;20051;-83
2022/04/14 01:30:25;;;;;;;23.43;12.47;;;;;;;5.43;56.52;101407.31;4912317;29;20472;-82
2022/04/14 01:32:51;;;;;;;30.58;13.52;;;;;;;5.43;57.06;101417.09;4937638;29;20055;-83
2022/04/14 01:35:20;;;;;;;24.13;13.15;;;;;;;5.53;56.75;101418.19;4926207;29;20031;-86
2022/04/14 01:37:52;;;;;;;29.70;13.38;;;;;;;5.49;56.98;101411.34;4925145;29;20410;-82
2022/04/14 01:40:20;;;;;;;25.60;13.23;;;;;;;5.32;57.68;101407.22;4928473;29;20126;-84
2022/04/14 01:42:46;;;;;;;25.77;13.07;;;;;;;5.27;58.31;101407.56;4920867;29;20031;-80
2022/04/14 01:45:15;;;;;;;33.25;13.68;;;;;;;5.36;59.18;101421.19;4917071;29;20044;-82
2022/04/14 01:47:44;;;;;;;26.52;13.93;;;;;;;5.39;59.13;101415.66;4926150;29;20102;-83
2022/04/14 01:50:13;;;;;;;21.75;13.57;;;;;;;5.35;59.51;101407.00;4910107;29;20038;-82
2022/04/14 01:52:45;;;;;;;24.98;13.85;;;;;;;5.33;59.97;101416.06;4936941;29;20036;-83
2022/04/14 01:55:10;;;;;;;23.23;14.38;;;;;;;5.28;60.71;101411.91;4933963;29;20058;-83
2022/04/14 01:57:36;;;;;;;25.55;13.98;;;;;;;5.39;60.93;101420.97;4921703;29;20032;-83
2022/04/14 02:00:06;;;;;;;24.43;14.40;;;;;;;5.19;61.65;101409.03;4922790;29;20527;-83
2022/04/14 02:02:31;;;;;;;23.42;14.27;;;;;;;5.12;62.08;101408.63;4922261;29;20295;-83
2022/04/14 02:04:58;;;;;;;23.15;14.07;;;;;;;5.00;62.77;101412.16;4913633;29;20416;-83
2022/04/14 02:07:24;;;;;;;25.95;14.65;;;;;;;4.96;63.12;101415.97;4913651;29;20057;-83
2022/04/14 02:09:51;;;;;;;32.97;14.57;;;;;;;4.88;62.69;101391.69;4936518;29;20047;-83
2022/04/14 02:12:17;;;;;;;27.08;14.48;;;;;;;4.83;62.74;101381.34;4925991;29;20062;-82
2022/04/14 02:14:43;;;;;;;24.27;14.20;;;;;;;5.02;62.37;101402.22;4934205;29;20027;-82
2022/04/14 02:17:10;;;;;;;32.07;16.10;;;;;;;5.00;62.33;101389.00;4921171;29;20421;-83
2022/04/14 02:19:39;;;;;;;24.27;13.95;;;;;;;5.21;61.64;101409.78;4916619;29;20044;-83
2022/04/14 02:22:05;;;;;;;28.65;14.40;;;;;;;5.08;61.29;101391.16;4936846;29;20545;-83
2022/04/14 02:24:34;;;;;;;31.10;14.15;;;;;;;5.19;60.83;101388.56;4900915;29;20036;-83
2022/04/14 02:27:00;;;;;;;23.40;13.95;;;;;;;5.32;60.40;101409.03;4927643;29;20036;-83
2022/04/14 02:29:29;;;;;;;24.30;13.75;;;;;;;5.31;59.86;101413.50;4930930;29;20110;-83
2022/04/14 02:31:57;;;;;;;24.13;12.95;;;;;;;5.42;59.08;101405.59;4891503;29;20053;-82
2022/04/14 02:34:26;;;;;;;24.52;13.68;;;;;;;5.52;58.39;101403.13;4933928;29;20031;-81
2022/04/14 02:36:52;;;;;;;29.58;13.20;;;;;;;5.55;57.97;101410.03;4906802;29;20450;-82
2022/04/14 02:39:18;;;;;;;24.33;13.13;;;;;;;5.75;57.31;101413.97;4938743;29;20058;-82
2022/04/14 02:41:45;;;;;;;21.83;13.23;;;;;;;5.93;56.57;101412.63;4921195;29;20047;-82
2022/04/14 02:44:13;;;;;;;22.02;12.93;;;;;;;5.85;56.41;101404.31;4908289;29;20106;-82
2022/04/14 02:46:38;;;;;;;21.70;12.80;;;;;;;6.01;55.57;101414.75;4924718;29;20068;-83
2022/04/14 02:49:04;;;;;;;23.33;12.93;;;;;;;6.09;54.92;101404.38;4906181;29;20135;-84
2022/04/14 02:51:31;;;;;;;21.60;12.52;;;;;;;6.02;55.07;101409.31;4918602;29;20055;-82
2022/04/14 02:53:59;;;;;;;19.58;12.35;;;;;;;6.12;54.90;101415.66;4936235;29;20040;-82
2022/04/14 02:56:27;;;;;;;23.77;12.35;;;;;;;6.18;54.72;101416.16;4938369;29;20027;-82
2022/04/14 02:58:54;;;;;;;21.58;11.93;;;;;;;6.09;54.93;101405.22;4912215;29;20436;-82
2022/04/14 03:01:19;;;;;;;25.65;12.10;;;;;;;6.20;54.38;101399.06;4932150;29;20035;-82
2022/04/14 03:03:45;;;;;;;22.17;11.87;;;;;;;6.18;54.43;101413.50;4926093;29;20059;-82
2022/04/14 03:06:10;;;;;;;23.23;12.67;;;;;;;6.17;54.29;101417.16;4932365;29;20295;-82
2022/04/14 03:08:36;;;;;;;20.57;11.77;;;;;;;6.18;53.99;101413.50;4937202;29;20497;-83
2022/04/14 03:11:02;;;;;;;22.83;11.68;;;;;;;6.16;54.14;101413.63;4922002;29;20290;-82
2022/04/14 03:13:31;;;;;;;19.02;11.93;;;;;;;6.17;53.82;101412.66;4910331;29;20404;-82
2022/04/14 03:15:57;;;;;;;20.42;12.02;;;;;;;6.19;54.14;101416.06;4931040;29;20062;-83
2022/04/14 03:18:22;;;;;;;19.45;11.40;;;;;;;6.25;53.35;101417.41;4922393;29;20577;-83
2022/04/14 03:20:48;;;;;;;18.88;11.05;;;;;;;6.16;53.25;101415.44;4902845;29;20055;-82
2022/04/14 03:23:15;;;;;;;18.52;10.45;;;;;;;6.10;52.98;101400.72;4945013;29;20535;-82
2022/04/14 03:25:41;;;;;;;23.33;12.00;;;;;;;6.15;53.30;101419.06;4919989;29;20035;-83
2022/04/14 03:28:07;;;;;;;20.83;11.60;;;;;;;6.05;53.67;101413.56;4938461;29;20040;-82
2022/04/14 03:30:35;;;;;;;24.80;13.10;;;;;;;6.23;53.59;101422.88;4932936;29;20283;-83
2022/04/14 03:33:03;;;;;;;24.55;13.77;;;;;;;6.14;53.64;101415.56;4917378;29;20487;-83
2022/04/14 03:35:30;;;;;;;27.88;15.40;;;;;;;6.18;54.18;101429.50;4922143;29;20110;-83
2022/04/14 03:37:56;;;;;;;27.08;14.68;;;;;;;6.07;54.64;101417.81;4928346;29;20044;-83
2022/04/14 03:40:21;;;;;;;28.23;14.63;;;;;;;6.09;54.58;101417.72;4916149;29;20065;-84
2022/04/14 03:42:50;;;;;;;30.77;14.33;;;;;;;6.12;54.65;101415.66;4927262;29;20398;-83
2022/04/14 03:45:16;;;;;;;28.15;14.40;;;;;;;6.02;55.06;101432.50;4932947;29;20105;-82
2022/04/14 03:47:41;;;;;;;24.67;14.57;;;;;;;6.04;55.39;101439.41;4936196;29;20059;-82
2022/04/14 03:50:07;;;;;;;28.42;14.52;;;;;;;5.98;55.45;101429.19;4918021;29;20050;-84
2022/04/14 03:52:33;;;;;;;29.50;15.32;;;;;;;5.87;55.89;101437.91;4923755;29;20110;-83
2022/04/14 03:54:59;;;;;;;29.55;15.65;;;;;;;5.90;55.82;101447.56;4895470;29;20561;-84
2022/04/14 03:57:27;;;;;;;28.25;14.65;;;;;;;5.92;55.53;101445.59;4928521;29;20059;-84
2022/04/14 03:59:52;;;;;;;23.58;14.48;;;;;;;5.98;55.61;101439.00;4927392;29;20114;-82
2022/04/14 04:02:18;;;;;;;28.88;14.43;;;;;;;5.89;55.96;101440.50;4928091;29;20040;-83
2022/04/14 04:04:45;;;;;;;21.73;14.27;;;;;;;5.99;55.61;101444.22;4895489;29;20039;-82
2022/04/14 04:07:11;;;;;;;33.50;14.23;;;;;;;6.07;55.33;101449.88;4914521;29;20290;-83
2022/04/14 04:09:38;;;;;;;29.43;15.23;;;;;;;6.04;55.73;101455.44;4918666;29;20501;-84
2022/04/14 04:12:08;;;;;;;28.73;14.60;;;;;;;6.10;55.56;101449.63;4911202;29;20038;-82
2022/04/14 04:14:34;;;;;;;34.65;15.23;;;;;;;6.21;55.04;101450.66;4933502;29;20043;-83
2022/04/14 04:17:01;;;;;;;25.90;14.63;;;;;;;6.33;54.65;101449.75;4925437;29;20075;-82
2022/04/14 04:19:28;;;;;;;24.55;13.90;;;;;;;6.28;54.49;101439.41;4939061;29;20099;-84
2022/04/14 04:21:54;;;;;;;26.50;14.18;;;;;;;6.40;54.42;101459.00;4945492;29;20039;-82
2022/04/14 04:24:20;;;;;;;27.37;13.60;;;;;;;6.50;53.99;101468.03;4916400;29;20436;-82
2022/04/14 04:26:47;;;;;;;26.13;13.18;;;;;;;6.72;53.68;101461.09;4924742;29;20035;-83
2022/04/14 04:29:12;;;;;;;29.15;14.50;;;;;;;6.61;53.43;101453.03;4922119;29;20058;-86
2022/04/14 04:31:39;;;;;;;33.05;14.50;;;;;;;6.80;53.52;101468.53;4937529;29;20481;-83
2022/04/14 04:34:05;;;;;;;24.67;13.80;;;;;;;6.84;53.15;101470.84;4944073;29;20031;-83
2022/04/14 04:36:33;;;;;;;23.45;14.25;;;;;;;6.90;53.20;101466.84;4937389;29;20036;-83
2022/04/14 04:39:04;;;;;;;28.23;13.82;;;;;;;7.00;52.82;101459.84;4917538;29;20035;-83
2022/04/14 04:41:31;;;;;;;25.48;13.82;;;;;;;7.14;52.53;101474.78;4924377;29;20035;-87
2022/04/14 04:44:00;;;;;;;25.45;13.35;;;;;;;7.15;52.32;101468.50;4923490;29;20040;-82
2022/04/14 04:46:27;;;;;;;29.48;12.77;;;;;;;7.19;52.19;101467.28;4907021;29;20039;-84
2022/04/14 04:48:56;;;;;;;27.98;13.35;;;;;;;7.32;52.38;101459.13;4918505;29;20130;-86
2022/04/14 04:51:22;;;;;;;35.40;13.32;;;;;;;7.34;51.81;101466.06;4925151;29;20524;-85
2022/04/14 04:53:51;;;;;;;24.92;13.48;;;;;;;7.50;51.63;101470.22;4943141;29;20103;-84
2022/04/14 04:56:18;;;;;;;23.38;13.02;;;;;;;7.47;51.64;101473.13;4922687;29;20027;-82
2022/04/14 04:58:44;;;;;;;29.35;14.40;;;;;;;7.60;51.57;101473.88;4936942;28;20028;-83
2022/04/14 05:01:11;;;;;;;23.58;13.85;;;;;;;7.60;51.31;101484.56;4925104;29;20528;-82
2022/04/14 05:03:36;;;;;;;30.08;14.30;;;;;;;7.59;51.31;101461.47;4922713;29;20131;-81
2022/04/14 05:06:02;;;;;;;36.17;14.93;;;;;;;7.68;51.32;101482.16;4923132;29;20063;-83
2022/04/14 05:08:39;;;;;;;27.08;14.32;;;;;;;7.73;52.55;101484.47;4946986;29;20496;-86
2022/04/14 05:11:12;;;;;;;34.90;14.82;;;;;;;7.88;51.97;101490.41;4925725;29;20094;-88
2022/04/14 05:13:42;;;;;;;28.27;15.13;;;;;;;7.99;51.04;101480.53;4928912;29;20116;-87
2022/04/14 05:16:11;;;;;;;34.50;18.10;;;;;;;8.10;51.69;101492.19;4935842;29;20035;-88
2022/04/14 05:19:02;;;;;;;35.67;18.40;;;;;;;8.11;50.92;101484.03;4929641;29;20421;-86
2022/04/14 05:21:28;;;;;;;39.97;18.95;;;;;;;8.38;51.17;101488.97;4927559;29;20495;-87
2022/04/14 05:24:07;;;;;;;39.25;19.17;;;;;;;8.41;50.70;101506.66;4915651;29;20047;-86
2022/04/14 05:26:38;;;;;;;50.28;20.35;;;;;;;8.33;51.13;101483.13;4915865;29;20102;-88
2022/04/14 05:29:04;;;;;;;37.60;19.33;;;;;;;8.38;50.78;101472.03;4907141;29;20039;-86
2022/04/14 05:31:34;;;;;;;53.78;17.42;;;;;;;8.48;50.51;101469.50;4931750;29;20044;-88
2022/04/14 05:34:00;;;;;;;43.60;18.27;;;;;;;8.52;50.45;101473.59;4933501;29;20071;-88
2022/04/14 05:36:30;;;;;;;35.28;17.92;;;;;;;8.65;50.35;101480.50;4916753;29;20516;-85
2022/04/14 05:38:57;;;;;;;35.30;17.75;;;;;;;8.72;49.94;101471.94;4945677;29;20039;-87
2022/04/14 05:41:26;;;;;;;41.08;17.17;;;;;;;8.85;49.23;101480.66;4917033;29;20771;-87
2022/04/14 05:43:52;;;;;;;35.60;18.17;;;;;;;8.77;49.61;101489.34;4929457;29;20058;-86
2022/04/14 05:46:19;;;;;;;36.25;17.08;;;;;;;8.88;49.39;101464.31;4928531;29;20050;-89
2022/04/14 05:48:55;;;;;;;42.90;19.25;;;;;;;9.03;48.89;101481.75;4936470;29;20201;-87
2022/04/14 05:51:26;;;;;;;40.08;17.27;;;;;;;9.10;49.17;101484.78;4947402;29;20477;-90
2022/04/14 05:53:55;;;;;;;43.20;17.55;;;;;;;9.19;48.69;101480.47;4913883;29;20496;-87
2022/04/14 05:56:21;;;;;;;42.22;18.98;;;;;;;9.02;49.31;101485.44;4927014;29;20042;-89
2022/04/14 05:58:57;;;;;;;45.05;19.50;;;;;;;9.21;49.45;101483.84;4916176;29;20473;-88
2022/04/14 06:01:33;;;;;;;40.08;18.15;;;;;;;9.27;48.60;101488.69;4945927;29;21097;-90
2022/04/14 06:03:59;;;;;;;35.75;17.58;;;;;;;9.37;48.55;101494.97;4924118;29;20032;-92
2022/04/14 06:06:30;;;;;;;34.95;17.80;;;;;;;9.47;48.27;101487.81;4928460;29;20040;-88
2022/04/14 06:08:59;;;;;;;37.03;17.17;;;;;;;9.35;48.56;101488.88;4930659;29;20059;-88
2022/04/14 06:11:28;;;;;;;31.77;15.25;;;;;;;9.39;48.01;101476.91;4932725;29;20501;-89
2022/04/14 06:14:06;;;;;;;28.58;15.23;;;;;;;9.52;47.81;101477.50;4935289;29;20074;-90
2022/04/14 06:16:32;;;;;;;29.33;14.75;;;;;;;9.48;47.68;101486.84;4953074;29;20551;-86
2022/04/14 06:18:57;;;;;;;36.58;16.52;;;;;;;9.57;48.10;101506.66;4954748;29;20166;-88
2022/04/14 06:21:28;;;;;;;30.05;15.32;;;;;;;9.79;47.95;101505.63;4914391;29;20066;-88
2022/04/14 06:23:55;;;;;;;31.77;15.35;;;;;;;9.89;47.47;101495.75;4928752;29;20055;-85
2022/04/14 06:26:30;;;;;;;26.25;14.70;;;;;;;10.08;47.02;101494.13;4927443;29;20039;-86
2022/04/14 06:29:02;;;;;;;42.90;16.13;;;;;;;10.17;46.98;101495.16;4929899;29;20086;-86
2022/04/14 06:31:27;;;;;;;33.17;15.70;;;;;;;10.23;46.45;101487.38;4920835;29;20419;-86
2022/04/14 06:33:54;;;;;;;27.13;14.95;;;;;;;10.43;46.10;101484.75;4934073;29;20083;-86
2022/04/14 06:36:20;;;;;;;42.78;20.40;;;;;;;10.75;46.21;101508.69;4917238;29;20110;-86
2022/04/14 06:38:47;;;;;;;35.42;15.70;;;;;;;10.64;46.16;101490.84;4945521;29;20035;-87
2022/04/14 06:41:16;;;;;;;27.98;15.80;;;;;;;10.77;45.95;101499.50;4933748;29;20043;-88
2022/04/14 06:43:45;;;;;;;35.95;14.52;;;;;;;10.86;45.22;101499.63;4917267;29;20047;-87
2022/04/14 06:46:13;;;;;;;37.70;15.57;;;;;;;10.84;45.58;101509.66;4956120;29;20043;-87
2022/04/14 06:48:54;;;;;;;35.72;17.35;;;;;;;11.03;45.26;101496.22;4926862;28;20035;-87
2022/04/14 06:51:21;;;;;;;35.13;16.15;;;;;;;11.15;44.68;101489.69;4938190;29;20050;-84
2022/04/14 06:53:53;;;;;;;43.45;17.20;;;;;;;11.30;44.52;101500.81;4943963;29;20035;-86
2022/04/14 06:56:20;;;;;;;38.45;17.65;;;;;;;11.54;44.30;101513.81;4954697;29;20046;-85
2022/04/14 06:58:53;;;;;;;28.90;16.23;;;;;;;11.81;44.13;101520.25;4928847;29;20076;-90
2022/04/14 07:01:18;;;;;;;39.25;16.90;;;;;;;11.86;44.66;101514.41;4925163;29;20032;-87
2022/04/14 07:04:10;;;;;;;40.90;16.05;;;;;;;12.12;43.57;101509.19;4922071;29;20145;-93
2022/04/14 07:07:06;;;;;;;27.00;15.75;;;;;;;11.90;43.60;101505.91;4930854;29;20432;-94
2022/04/14 07:10:15;;;;;;;34.28;17.02;;;;;;;12.23;43.40;101522.47;4925158;29;20062;-92
2022/04/14 07:13:13;;;;;;;35.45;15.98;;;;;;;12.21;43.54;101521.78;4953477;29;20027;-95
2022/04/14 07:19:04;;;;;;;36.03;17.25;;;;;;;12.37;43.40;101519.28;4934471;29;20094;-95
2022/04/14 07:21:39;;;;;;;26.92;15.90;;;;;;;12.42;42.87;101522.34;4935743;29;20035;-94
2022/04/14 07:24:19;;;;;;;32.55;16.73;;;;;;;12.75;42.26;101522.69;4900799;29;20032;-94
2022/04/14 07:27:01;;;;;;;26.65;15.60;;;;;;;12.84;41.85;101516.38;4895404;29;20047;-95
2022/04/14 07:30:03;;;;;;;25.55;14.90;;;;;;;13.23;40.66;101521.41;4923739;29;20035;-95
2022/04/14 07:32:45;;;;;;;27.77;15.02;;;;;;;13.50;40.93;101543.91;4920739;29;20024;-96
2022/04/14 07:35:18;;;;;;;26.52;14.77;;;;;;;13.69;40.20;101516.66;4901219;29;20040;-95
2022/04/14 07:37:51;;;;;;;29.20;15.45;;;;;;;14.03;39.27;101518.53;4879667;29;20060;-95
2022/04/14 07:40:29;;;;;;;26.55;13.90;;;;;;;14.26;38.62;101504.44;4910168;29;20127;-94
2022/04/14 07:46:20;;;;;;;29.15;14.27;;;;;;;17.14;33.46;101514.34;4924716;29;20055;-93
2022/04/14 07:48:59;;;;;;;31.20;14.05;;;;;;;18.25;32.58;101520.78;4898708;29;20559;-91
2022/04/14 07:51:26;;;;;;;25.25;12.90;;;;;;;19.18;29.52;101501.84;4878327;29;20498;-92
2022/04/14 07:53:53;;;;;;;24.63;12.90;;;;;;;20.71;27.57;101493.63;4888835;29;20142;-93
2022/04/14 07:56:23;;;;;;;25.50;13.73;;;;;;;21.98;25.39;101503.38;4873269;29;20115;-93
2022/04/14 08:01:37;;;;;;;27.92;13.05;;;;;;;23.79;23.03;101479.97;4884213;29;20063;-92
2022/04/14 08:04:03;;;;;;;21.95;11.38;;;;;;;24.16;22.29;101490.06;4920679;29;20497;-92
2022/04/14 08:07:04;;;;;;;20.25;11.27;;;;;;;23.97;21.75;101503.81;4860423;29;20141;-91
2022/04/14 08:09:33;;;;;;;21.60;10.90;;;;;;;24.59;20.64;101489.94;4860944;29;20057;-92
2022/04/14 08:12:23;;;;;;;18.42;9.00;;;;;;;26.14;19.04;101495.25;4860579;29;20182;-93
2022/04/14 08:26:09;;;;;;;8.25;4.80;;;;;;;25.88;17.16;101499.41;4861241;29;20052;-90
2022/04/14 08:36:21;;;;;;;6.28;2.95;;;;;;;27.70;14.41;101493.00;4878921;29;20047;-87
2022/04/14 08:38:49;;;;;;;11.25;3.20;;;;;;;27.69;14.42;101445.16;4897565;29;20485;-89
2022/04/14 08:45:11;;;;;;;10.43;3.30;;;;;;;28.83;14.19;101482.13;4918146;29;20362;-88
2022/04/14 09:01:50;;;;;;;6.05;2.65;;;;;;;28.90;14.42;101447.88;4919233;29;20050;-88
2022/04/14 09:07:40;;;;;;;4.00;2.50;;;;;;;30.59;12.77;101462.56;4916994;29;20095;-87
2022/04/14 09:10:07;;;;;;;7.65;2.90;;;;;;;31.55;11.79;101466.41;4884628;29;20043;-88
2022/04/14 09:12:39;;;;;;;4.93;2.70;;;;;;;31.16;11.84;101467.00;4931058;29;20094;-87
2022/04/14 09:15:05;;;;;;;7.72;2.40;;;;;;;31.16;12.01;101447.56;4902022;29;20039;-86
2022/04/14 09:17:31;;;;;;;5.13;2.47;;;;;;;31.50;11.45;101458.91;4902941;29;20048;-87
2022/04/14 09:19:56;;;;;;;6.82;2.85;;;;;;;30.41;12.41;101444.50;4883212;29;20090;-87
2022/04/14 09:26:23;;;;;;;8.13;2.60;;;;;;;31.58;11.95;101451.09;4916527;29;20131;-88
2022/04/14 09:49:18;;;;;;;7.45;3.03;;;;;;;32.06;11.43;101435.63;4916586;29;20042;-89
2022/04/14 09:55:09;;;;;;;4.70;2.58;;;;;;;31.11;11.61;101436.47;4859300;29;20049;-89
2022/04/14 10:00:57;;;;;;;8.23;2.63;;;;;;;33.85;9.79;101431.19;4859315;29;20044;-88
2022/04/14 10:03:43;;;;;;;5.28;2.22;;;;;;;33.28;10.49;101438.56;4843344;29;20037;-88
2022/04/14 10:09:38;;;;;;;8.20;2.90;;;;;;;33.29;10.56;101425.44;4857582;29;20511;-88
2022/04/14 10:12:39;;;;;;;6.32;2.80;;;;;;;34.90;9.31;101427.38;4813052;29;20558;-87
2022/04/14 10:15:50;;;;;;;10.70;2.53;;;;;;;34.65;9.39;101431.44;4856389;29;20479;-88
2022/04/14 10:18:17;;;;;;;4.28;2.40;;;;;;;33.78;10.44;101432.69;4857178;29;20057;-87
2022/04/14 10:24:24;;;;;;;4.00;2.40;;;;;;;34.15;9.83;101423.56;4918093;29;20042;-85
2022/04/14 10:26:56;;;;;;;6.53;2.80;;;;;;;34.57;9.54;101421.78;4905963;29;20043;-87
2022/04/14 10:29:25;;;;;;;6.65;3.08;;;;;;;35.68;9.14;101419.19;4917745;29;20043;-88
2022/04/14 10:31:54;;;;;;;4.95;3.05;;;;;;;36.44;8.96;101418.59;4900289;29;20024;-88
2022/04/14 10:38:16;;;;;;;3.93;2.33;;;;;;;35.73;9.13;101407.91;4916158;29;20178;-88
2022/04/14 10:41:07;;;;;;;4.22;2.60;;;;;;;35.31;9.27;101404.28;4881061;29;20375;-85
2022/04/14 10:43:38;;;;;;;4.80;2.25;;;;;;;35.50;9.18;101402.22;4884905;29;20032;-89
2022/04/14 10:46:04;;;;;;;6.60;2.30;;;;;;;34.57;9.41;101407.81;4884964;29;20123;-88
2022/04/14 10:48:39;;;;;;;6.15;2.30;;;;;;;34.60;9.62;101412.81;4883703;29;20427;-88
2022/04/14 10:51:32;;;;;;;6.20;2.60;;;;;;;34.57;9.84;101418.16;4868735;29;20139;-89
2022/04/14 10:54:03;;;;;;;7.10;2.78;;;;;;;35.01;9.58;101411.28;4897783;29;20043;-87
2022/04/14 10:56:41;;;;;;;9.88;2.85;;;;;;;35.28;9.22;101410.47;4885445;29;20344;-89
2022/04/14 10:59:18;;;;;;;5.60;2.40;;;;;;;34.94;9.28;101403.28;4938071;29;20060;-88
2022/04/14 11:01:47;;;;;;;5.00;2.60;;;;;;;34.25;10.14;101412.25;4931300;29;20036;-87
2022/04/14 11:04:37;;;;;;;4.18;2.40;;;;;;;33.85;10.07;101422.81;4935484;29;20050;-86
2022/04/14 11:07:17;;;;;;;4.63;2.17;;;;;;;31.88;11.28;101419.56;4913361;29;20458;-86
2022/04/14 11:09:49;;;;;;;5.10;2.00;;;;;;;32.77;10.71;101425.09;4922800;29;20103;-88
2022/04/14 11:12:44;;;;;;;4.20;2.22;;;;;;;33.17;10.81;101420.28;4915881;29;20528;-86
2022/04/14 11:15:09;;;;;;;8.20;2.35;;;;;;;33.03;10.86;101420.13;4937889;29;20461;-87
2022/04/14 11:20:45;;;;;;;7.25;2.55;;;;;;;32.43;11.33;101423.16;4921727;29;20054;-90
2022/04/14 11:23:27;;;;;;;5.25;2.63;;;;;;;31.30;11.95;101418.09;4902891;29;20127;-88
2022/04/14 11:26:24;;;;;;;6.07;2.47;;;;;;;31.62;11.91;101408.56;4903961;29;20032;-89
2022/04/14 11:29:05;;;;;;;6.68;3.28;;;;;;;30.68;12.29;101399.84;4879652;29;20052;-88
2022/04/14 11:31:45;;;;;;;5.25;3.22;;;;;;;31.26;12.35;101392.00;4935185;29;20048;-90
2022/04/14 11:34:36;;;;;;;9.15;2.40;;;;;;;29.68;13.24;101387.16;4899460;29;20520;-92
2022/04/14 11:37:04;;;;;;;6.07;2.20;;;;;;;30.89;13.04;101398.75;4909155;29;20028;-90
2022/04/14 11:39:36;;;;;;;4.68;2.50;;;;;;;29.90;12.88;101388.91;4911958;29;20044;-91
2022/04/14 11:42:25;;;;;;;5.20;2.40;;;;;;;31.61;11.83;101390.25;4903746;29;20294;-90
2022/04/14 11:44:55;;;;;;;4.05;2.50;;;;;;;31.26;12.11;101367.00;4924687;29;20055;-93
2022/04/14 11:47:27;;;;;;;7.90;2.67;;;;;;;31.04;12.40;101380.38;4888943;29;20341;-91
2022/04/14 11:49:57;;;;;;;5.78;3.00;;;;;;;31.31;12.43;101380.88;4897413;29;20052;-89
2022/04/14 11:52:49;;;;;;;5.65;2.80;;;;;;;30.75;12.73;101388.47;4923139;29;20032;-93
2022/04/14 11:55:44;;;;;;;7.05;2.85;;;;;;;31.18;12.73;101381.47;4918268;29;20061;-85
2022/04/14 11:58:16;;;;;;;7.38;2.85;;;;;;;30.75;13.34;101389.28;4915861;29;20047;-90
2022/04/14 12:01:06;;;;;;;5.25;2.60;;;;;;;28.87;14.55;101362.59;4900930;29;20046;-90
2022/04/14 12:03:50;;;;;;;5.47;2.85;;;;;;;29.34;14.05;101365.41;4905306;29;20043;-90
2022/04/14 12:06:54;;;;;;;6.22;2.58;;;;;;;28.49;14.82;101387.50;4915661;29;20103;-88
2022/04/14 12:09:29;;;;;;;10.15;3.63;;;;;;;28.17;15.25;101351.53;4912103;29;20036;-88
2022/04/14 12:11:55;;;;;;;;;;;;;;;27.99;15.64;101377.59;4922480;29;20042;-91
2022/04/14 12:14:24;;;;;;;4.85;2.85;;;;;;;26.89;16.21;101363.69;4905262;29;19915;-88
2022/04/14 12:17:04;;;;;;;7.95;2.42;;;;;;;26.77;16.61;101366.56;4888713;29;20062;-91
2022/04/14 12:19:55;;;;;;;6.18;2.80;;;;;;;26.36;16.80;101370.53;4918578;29;20254;-90
2022/04/14 12:22:27;;;;;;;7.30;2.63;;;;;;;25.62;18.19;101369.41;4950607;29;20040;-91
2022/04/14 12:25:21;;;;;;;5.47;2.42;;;;;;;25.28;17.92;101366.47;4926336;29;20059;-91
2022/04/14 12:27:53;;;;;;;6.68;2.53;;;;;;;25.02;18.04;101355.97;4935276;29;20035;-88
2022/04/14 12:30:43;;;;;;;5.70;2.40;;;;;;;25.12;18.25;101358.09;4895557;29;20028;-91
2022/04/14 12:33:18;;;;;;;5.07;2.50;;;;;;;25.23;18.30;101349.84;4902449;29;20044;-89
2022/04/14 12:36:18;;;;;;;4.32;2.70;;;;;;;24.20;19.51;101357.50;4920013;29;20055;-88
2022/04/14 12:38:50;;;;;;;4.63;2.30;;;;;;;24.40;19.69;101370.13;4902266;29;20036;-90
2022/04/14 12:41:26;;;;;;;4.15;2.13;;;;;;;24.84;19.17;101365.16;4900281;29;20067;-86
2022/04/14 12:43:54;;;;;;;5.03;2.17;;;;;;;24.73;18.42;101341.28;4924890;29;20080;-86
2022/04/14 12:46:32;;;;;;;5.57;2.60;;;;;;;25.02;19.60;101356.78;4907467;29;20070;-88
2022/04/14 12:49:04;;;;;;;4.65;2.00;;;;;;;24.86;19.07;101352.00;4908434;29;20044;-89
2022/04/14 12:51:58;;;;;;;6.20;2.38;;;;;;;24.87;19.09;101358.38;4914789;29;20051;-89
2022/04/14 12:54:47;;;;;;;5.43;2.60;;;;;;;24.67;20.19;101355.97;4920891;29;20051;-89
2022/04/14 13:00:12;;;;;;;6.53;2.40;;;;;;;24.40;19.08;101348.16;4916919;29;20127;-88
2022/04/14 13:03:14;;;;;;;6.93;2.58;;;;;;;24.43;20.14;101353.16;4914940;29;20036;-89
2022/04/14 13:05:52;;;;;;;4.93;2.35;;;;;;;24.53;20.20;101353.44;4920511;29;20032;-90
2022/04/14 13:08:58;;;;;;;7.43;2.38;;;;;;;22.91;22.08;101365.00;4919444;29;20063;-91
2022/04/14 13:11:57;;;;;;;7.55;2.42;;;;;;;22.10;23.60;101362.03;4910033;29;20040;-88
2022/04/14 13:14:33;;;;;;;9.25;2.58;;;;;;;21.32;25.16;101362.13;4900385;29;20420;-90
2022/04/14 13:17:16;;;;;;;24.98;2.80;;;;;;;20.94;24.88;101351.09;4886669;29;20040;-91
2022/04/14 13:19:48;;;;;;;9.45;2.50;;;;;;;20.71;25.39;101335.97;4911589;29;20056;-89